< < Back
Terminal Aerodrome Forecast


Current Version              Previous Versions:   1  2  3  4  5  6  7  8  9  

Terminal Aerodrome Forecast

295
FTUS42 KFFC 261000 AAB
TAFPDK
TAF AMD
KPDK 261000Z 2610/2706 07007KT P6SM SCT018 SCT150
      TEMPO 2612/2614 BKN018
     FM261400 09010KT P6SM SCT025 SCT120
     FM261600 11008KT P6SM SCT040 PROB30 2620/2701 5SM -TSRA
      BKN035CB
     FM270200 12003KT P6SM SCT070 BKN250=

Latest METAR

592
SAUS70 KWBC 261500
MTRPDK
METAR KPDK 261453Z 08007KT 10SM FEW029 29/21 A3019 RMK AO2 SLP202
T02940206 50003


USA.gov is the U.S. government's official web portal to all federal, state and local government web resources and services.